JZR311A OKKK-LTCG
Flight info
| Callsign | JZR311A |
|---|---|
| Flight time | 2h 20m |
| Altitude | 36000 |
| Route | OKKK/33L RALKA L602 ALPET L718 KABAN UR21 SRT UM860 KONUK UW88 SONAD DCT TOLUN |
| Aircraft | A320/M-SDE3FGHIRWY/LB1 |
Departure
| Time | 2026-05-08 10:32 |
|---|---|
| Airport | Kuwait International Airport (OKKK) |
Arrival
| Time | 2026-05-08 12:53 |
|---|---|
| Airport | Trabzon International Airport (LTCG) |
| Time | Latitude | Longitude | Altitude | Speed | Heading |
|---|---|---|---|---|---|
| 2026-05-08 10:06 | 29.23687 | 47.96946 | 152 ft | 0 kts | 159° |
| 2026-05-08 10:17 | 29.23694 | 47.96943 | 70 ft | 2 kts | 159° |
| 2026-05-08 10:17 | 29.23712 | 47.96936 | 152 ft | 3 kts | 164° |
| 2026-05-08 10:18 | 29.23732 | 47.96930 | 152 ft | 3 kts | 171° |
| 2026-05-08 10:18 | 29.23751 | 47.96928 | 151 ft | 2 kts | 181° |
| 2026-05-08 10:18 | 29.23760 | 47.96928 | 151 ft | 1 kts | 182° |
| 2026-05-08 10:18 | 29.23761 | 47.96928 | 151 ft | 0 kts | 182° |
| 2026-05-08 10:22 | 29.23755 | 47.96918 | 151 ft | 2 kts | 239° |
| 2026-05-08 10:22 | 29.23752 | 47.96911 | 151 ft | 0 kts | 240° |
| 2026-05-08 10:22 | 29.23743 | 47.96891 | 151 ft | 8 kts | 243° |
| 2026-05-08 10:23 | 29.23712 | 47.96815 | 150 ft | 9 kts | 244° |
| 2026-05-08 10:23 | 29.23685 | 47.96745 | 149 ft | 11 kts | 251° |
| 2026-05-08 10:23 | 29.23668 | 47.96691 | 149 ft | 7 kts | 249° |
| 2026-05-08 10:23 | 29.23632 | 47.96638 | 149 ft | 9 kts | 191° |
| 2026-05-08 10:24 | 29.23558 | 47.96665 | 151 ft | 13 kts | 153° |
| 2026-05-08 10:24 | 29.23478 | 47.96708 | 151 ft | 13 kts | 155° |
| 2026-05-08 10:24 | 29.23392 | 47.96752 | 152 ft | 14 kts | 156° |
| 2026-05-08 10:24 | 29.23303 | 47.96799 | 153 ft | 13 kts | 154° |
| 2026-05-08 10:25 | 29.23211 | 47.96850 | 154 ft | 16 kts | 155° |
| 2026-05-08 10:25 | 29.23104 | 47.96907 | 156 ft | 18 kts | 155° |
| 2026-05-08 10:25 | 29.22978 | 47.96971 | 157 ft | 21 kts | 155° |
| 2026-05-08 10:25 | 29.22837 | 47.97043 | 159 ft | 24 kts | 156° |
| 2026-05-08 10:26 | 29.22681 | 47.97129 | 161 ft | 26 kts | 156° |
| 2026-05-08 10:26 | 29.22530 | 47.97209 | 163 ft | 23 kts | 155° |
| 2026-05-08 10:26 | 29.22396 | 47.97280 | 164 ft | 22 kts | 155° |
| 2026-05-08 10:26 | 29.22266 | 47.97350 | 166 ft | 22 kts | 155° |
| 2026-05-08 10:27 | 29.22123 | 47.97425 | 168 ft | 18 kts | 155° |
| 2026-05-08 10:27 | 29.22024 | 47.97479 | 169 ft | 17 kts | 154° |
| 2026-05-08 10:27 | 29.21935 | 47.97526 | 170 ft | 14 kts | 155° |
| 2026-05-08 10:27 | 29.21828 | 47.97583 | 171 ft | 20 kts | 155° |
| 2026-05-08 10:28 | 29.21694 | 47.97653 | 172 ft | 25 kts | 155° |
| 2026-05-08 10:28 | 29.21525 | 47.97743 | 175 ft | 25 kts | 155° |
| 2026-05-08 10:28 | 29.21381 | 47.97821 | 177 ft | 20 kts | 154° |
| 2026-05-08 10:28 | 29.21274 | 47.97848 | 178 ft | 15 kts | 211° |
| 2026-05-08 10:29 | 29.21241 | 47.97755 | 177 ft | 15 kts | 270° |
| 2026-05-08 10:29 | 29.21313 | 47.97644 | 175 ft | 18 kts | 308° |
| 2026-05-08 10:29 | 29.21396 | 47.97563 | 174 ft | 16 kts | 333° |
| 2026-05-08 10:29 | 29.21418 | 47.97550 | 173 ft | 0 kts | 333° |
| 2026-05-08 10:30 | 29.21419 | 47.97550 | 173 ft | 0 kts | 333° |
| 2026-05-08 10:30 | 29.21424 | 47.97546 | 173 ft | 1 kts | 333° |
| 2026-05-08 10:30 | 29.21435 | 47.97541 | 173 ft | 0 kts | 334° |
| 2026-05-08 10:31 | 29.21449 | 47.97533 | 173 ft | 7 kts | 334° |
| 2026-05-08 10:31 | 29.21530 | 47.97490 | 171 ft | 23 kts | 336° |
| 2026-05-08 10:31 | 29.21905 | 47.97293 | 168 ft | 93 kts | 334° |
| 2026-05-08 10:31 | 29.22667 | 47.96882 | 161 ft | 147 kts | 337° |
| 2026-05-08 10:32 | 29.23707 | 47.96325 | 172 ft | 185 kts | 338° |
| 2026-05-08 10:32 | 29.24820 | 47.95772 | 850 ft | 179 kts | 334° |
| 2026-05-08 10:32 | 29.25937 | 47.95160 | 1526 ft | 179 kts | 334° |
| 2026-05-08 10:32 | 29.27144 | 47.94677 | 1792 ft | 196 kts | 358° |
| 2026-05-08 10:33 | 29.28544 | 47.95041 | 1992 ft | 222 kts | 21° |
| 2026-05-08 10:33 | 29.30046 | 47.95807 | 2430 ft | 248 kts | 24° |
| 2026-05-08 10:33 | 29.31660 | 47.96658 | 3175 ft | 258 kts | 24° |
| 2026-05-08 10:33 | 29.33305 | 47.97524 | 3996 ft | 263 kts | 23° |
| 2026-05-08 10:34 | 29.34956 | 47.98420 | 4815 ft | 265 kts | 23° |
| 2026-05-08 10:34 | 29.36635 | 47.99362 | 5493 ft | 272 kts | 24° |
| 2026-05-08 10:34 | 29.38358 | 48.00337 | 6160 ft | 280 kts | 24° |
| 2026-05-08 10:34 | 29.40120 | 48.01346 | 6806 ft | 287 kts | 24° |
| 2026-05-08 10:35 | 29.41924 | 48.02388 | 7473 ft | 293 kts | 24° |
| 2026-05-08 10:35 | 29.43762 | 48.03465 | 8164 ft | 298 kts | 24° |
| 2026-05-08 10:35 | 29.45615 | 48.04556 | 8849 ft | 302 kts | 24° |
| 2026-05-08 10:35 | 29.47497 | 48.05664 | 9544 ft | 306 kts | 24° |
| 2026-05-08 10:36 | 29.49408 | 48.06788 | 10183 ft | 313 kts | 24° |
| 2026-05-08 10:36 | 29.51401 | 48.07951 | 10352 ft | 336 kts | 24° |
| 2026-05-08 10:36 | 29.53594 | 48.09218 | 10468 ft | 359 kts | 24° |
| 2026-05-08 10:36 | 29.55944 | 48.10187 | 10803 ft | 367 kts | 7° |
| 2026-05-08 10:37 | 29.58474 | 48.10254 | 11382 ft | 366 kts | 348° |
| 2026-05-08 10:37 | 29.60910 | 48.09448 | 11993 ft | 365 kts | 337° |
| 2026-05-08 10:37 | 29.63306 | 48.08448 | 12617 ft | 369 kts | 336° |
| 2026-05-08 10:37 | 29.65728 | 48.07414 | 13237 ft | 373 kts | 336° |
| 2026-05-08 10:38 | 29.68174 | 48.06360 | 13818 ft | 377 kts | 336° |
| 2026-05-08 10:38 | 29.70639 | 48.05297 | 14378 ft | 380 kts | 336° |
| 2026-05-08 10:38 | 29.73139 | 48.04223 | 14945 ft | 383 kts | 336° |
| 2026-05-08 10:38 | 29.75646 | 48.03149 | 15525 ft | 385 kts | 336° |
| 2026-05-08 10:39 | 29.78172 | 48.02071 | 16101 ft | 388 kts | 336° |
| 2026-05-08 10:39 | 29.80717 | 48.00988 | 16697 ft | 390 kts | 336° |
| 2026-05-08 10:39 | 29.83269 | 47.99902 | 17267 ft | 393 kts | 335° |
| 2026-05-08 10:39 | 29.85847 | 47.98804 | 17847 ft | 396 kts | 335° |
| 2026-05-08 10:40 | 29.88445 | 47.97697 | 18396 ft | 399 kts | 335° |
| 2026-05-08 10:40 | 29.91067 | 47.96580 | 18828 ft | 404 kts | 335° |
| 2026-05-08 10:40 | 29.93702 | 47.95454 | 19279 ft | 408 kts | 335° |
| 2026-05-08 10:40 | 29.96385 | 47.94302 | 19730 ft | 412 kts | 335° |
| 2026-05-08 10:41 | 29.99062 | 47.93118 | 20192 ft | 413 kts | 331° |
| 2026-05-08 10:41 | 30.01558 | 47.91564 | 20635 ft | 411 kts | 321° |
| 2026-05-08 10:41 | 30.03797 | 47.89545 | 21075 ft | 407 kts | 311° |
| 2026-05-08 10:41 | 30.05724 | 47.87155 | 21535 ft | 406 kts | 305° |
| 2026-05-08 10:42 | 30.07561 | 47.84697 | 21996 ft | 408 kts | 305° |
| 2026-05-08 10:42 | 30.09428 | 47.82205 | 22438 ft | 410 kts | 304° |
| 2026-05-08 10:42 | 30.11301 | 47.79708 | 22887 ft | 413 kts | 304° |
| 2026-05-08 10:42 | 30.13183 | 47.77199 | 23322 ft | 415 kts | 304° |
| 2026-05-08 10:43 | 30.15085 | 47.74657 | 23695 ft | 417 kts | 304° |
| 2026-05-08 10:43 | 30.16986 | 47.72115 | 24016 ft | 420 kts | 304° |
| 2026-05-08 10:43 | 30.18897 | 47.69559 | 24328 ft | 423 kts | 304° |
| 2026-05-08 10:43 | 30.20838 | 47.66961 | 24658 ft | 425 kts | 303° |
| 2026-05-08 10:44 | 30.22779 | 47.64364 | 24963 ft | 427 kts | 303° |
| 2026-05-08 10:44 | 30.24720 | 47.61760 | 25264 ft | 430 kts | 303° |
| 2026-05-08 10:44 | 30.26682 | 47.59123 | 25561 ft | 432 kts | 303° |
| 2026-05-08 10:44 | 30.28646 | 47.56485 | 25859 ft | 435 kts | 303° |
| 2026-05-08 10:45 | 30.30625 | 47.53830 | 26144 ft | 437 kts | 303° |
| 2026-05-08 10:45 | 30.32600 | 47.51181 | 26423 ft | 440 kts | 302° |
| 2026-05-08 10:45 | 30.34599 | 47.48497 | 26714 ft | 442 kts | 302° |
| 2026-05-08 10:45 | 30.36614 | 47.45783 | 26981 ft | 445 kts | 302° |
| 2026-05-08 10:46 | 30.38629 | 47.43068 | 27237 ft | 447 kts | 302° |
| 2026-05-08 10:46 | 30.40667 | 47.40325 | 27489 ft | 450 kts | 302° |
| 2026-05-08 10:46 | 30.42719 | 47.37566 | 27743 ft | 452 kts | 302° |
| 2026-05-08 10:46 | 30.44780 | 47.34790 | 27984 ft | 455 kts | 302° |
| 2026-05-08 10:47 | 30.46840 | 47.32005 | 28244 ft | 457 kts | 302° |
| 2026-05-08 10:47 | 30.48914 | 47.29201 | 28469 ft | 459 kts | 301° |
| 2026-05-08 10:47 | 30.50996 | 47.26386 | 28691 ft | 461 kts | 301° |
| 2026-05-08 10:47 | 30.53098 | 47.23540 | 28909 ft | 463 kts | 301° |
| 2026-05-08 10:48 | 30.55192 | 47.20696 | 29123 ft | 465 kts | 301° |
| 2026-05-08 10:48 | 30.57290 | 47.17846 | 29335 ft | 467 kts | 301° |
| 2026-05-08 10:48 | 30.59413 | 47.14970 | 29604 ft | 467 kts | 301° |
| 2026-05-08 10:48 | 30.61517 | 47.12133 | 29936 ft | 466 kts | 300° |
| 2026-05-08 10:49 | 30.63634 | 47.09280 | 30201 ft | 465 kts | 300° |
| 2026-05-08 10:49 | 30.65748 | 47.06426 | 30469 ft | 464 kts | 300° |
| 2026-05-08 10:49 | 30.67833 | 47.03596 | 30769 ft | 462 kts | 300° |
| 2026-05-08 10:49 | 30.69915 | 47.00755 | 31064 ft | 459 kts | 299° |
| 2026-05-08 10:50 | 30.71982 | 46.97931 | 31362 ft | 457 kts | 299° |
| 2026-05-08 10:50 | 30.74043 | 46.95113 | 31694 ft | 455 kts | 299° |
| 2026-05-08 10:50 | 30.76080 | 46.92331 | 32000 ft | 453 kts | 299° |
| 2026-05-08 10:50 | 30.78131 | 46.89539 | 32307 ft | 451 kts | 298° |
| 2026-05-08 10:51 | 30.80154 | 46.86785 | 32591 ft | 450 kts | 298° |
| 2026-05-08 10:51 | 30.82169 | 46.84037 | 32872 ft | 448 kts | 298° |
| 2026-05-08 10:51 | 30.84177 | 46.81293 | 33159 ft | 446 kts | 298° |
| 2026-05-08 10:51 | 30.86192 | 46.78532 | 33446 ft | 445 kts | 298° |
| 2026-05-08 10:52 | 30.88190 | 46.75788 | 33717 ft | 445 kts | 298° |
| 2026-05-08 10:52 | 30.90192 | 46.73039 | 33980 ft | 444 kts | 297° |
| 2026-05-08 10:52 | 30.92190 | 46.70301 | 34178 ft | 444 kts | 297° |
| 2026-05-08 10:52 | 30.94166 | 46.67594 | 34405 ft | 443 kts | 297° |
| 2026-05-08 10:53 | 30.96147 | 46.64876 | 34632 ft | 442 kts | 297° |
| 2026-05-08 10:53 | 30.98145 | 46.62129 | 34848 ft | 441 kts | 297° |
| 2026-05-08 10:53 | 31.00121 | 46.59409 | 35058 ft | 441 kts | 297° |
| 2026-05-08 10:53 | 31.02108 | 46.56670 | 35252 ft | 441 kts | 297° |
| 2026-05-08 10:54 | 31.04061 | 46.53977 | 35424 ft | 441 kts | 297° |
| 2026-05-08 10:54 | 31.06066 | 46.51219 | 35607 ft | 440 kts | 297° |
| 2026-05-08 10:54 | 31.08020 | 46.48530 | 35788 ft | 440 kts | 297° |
| 2026-05-08 10:54 | 31.09999 | 46.45802 | 35947 ft | 439 kts | 297° |
| 2026-05-08 10:55 | 31.11999 | 46.43033 | 35988 ft | 440 kts | 297° |
| 2026-05-08 10:55 | 31.15915 | 46.37613 | 35994 ft | 439 kts | 297° |
| 2026-05-08 10:56 | 31.19861 | 46.32170 | 35993 ft | 443 kts | 299° |
| 2026-05-08 10:56 | 31.23706 | 46.28016 | 35995 ft | 457 kts | 307° |
| 2026-05-08 10:57 | 31.28546 | 46.23185 | 35998 ft | 457 kts | 307° |
| 2026-05-08 10:57 | 31.35754 | 46.15944 | 36017 ft | 456 kts | 307° |
| 2026-05-08 10:58 | 31.40568 | 46.11087 | 36028 ft | 456 kts | 307° |
| 2026-05-08 10:58 | 31.45387 | 46.06226 | 36030 ft | 456 kts | 307° |
| 2026-05-08 10:59 | 31.50181 | 46.01391 | 36033 ft | 456 kts | 307° |
| 2026-05-08 10:59 | 31.55004 | 45.96514 | 36065 ft | 456 kts | 307° |
| 2026-05-08 11:00 | 31.59806 | 45.91649 | 36047 ft | 457 kts | 307° |
| 2026-05-08 11:00 | 31.64620 | 45.86777 | 36048 ft | 457 kts | 307° |
| 2026-05-08 11:01 | 31.69422 | 45.81896 | 36060 ft | 457 kts | 307° |
| 2026-05-08 11:01 | 31.74170 | 45.77046 | 36052 ft | 457 kts | 307° |
| 2026-05-08 11:02 | 31.81385 | 45.69697 | 36072 ft | 457 kts | 307° |
| 2026-05-08 11:03 | 31.86545 | 45.65159 | 36039 ft | 481 kts | 323° |
| 2026-05-08 11:03 | 31.92612 | 45.61726 | 36019 ft | 486 kts | 324° |
| 2026-05-08 11:04 | 31.98743 | 45.58339 | 36024 ft | 488 kts | 324° |
| 2026-05-08 11:04 | 32.04909 | 45.54937 | 36025 ft | 488 kts | 324° |
| 2026-05-08 11:05 | 32.11039 | 45.51523 | 36024 ft | 488 kts | 324° |
| 2026-05-08 11:05 | 32.17172 | 45.48073 | 36060 ft | 489 kts | 324° |
| 2026-05-08 11:06 | 32.23329 | 45.44614 | 36060 ft | 489 kts | 324° |
| 2026-05-08 11:06 | 32.29464 | 45.41164 | 36078 ft | 489 kts | 324° |
| 2026-05-08 11:07 | 32.35613 | 45.37716 | 36083 ft | 489 kts | 325° |
| 2026-05-08 11:07 | 32.41737 | 45.34284 | 36077 ft | 489 kts | 325° |
| 2026-05-08 11:08 | 32.47855 | 45.30840 | 36087 ft | 488 kts | 325° |
| 2026-05-08 11:08 | 32.53994 | 45.27368 | 36083 ft | 487 kts | 325° |
| 2026-05-08 11:09 | 32.60100 | 45.23905 | 36101 ft | 487 kts | 325° |
| 2026-05-08 11:09 | 32.66207 | 45.20441 | 36094 ft | 486 kts | 325° |
| 2026-05-08 11:10 | 32.72309 | 45.16986 | 36095 ft | 485 kts | 326° |
| 2026-05-08 11:10 | 32.78408 | 45.13530 | 36109 ft | 484 kts | 326° |
| 2026-05-08 11:11 | 32.84463 | 45.10086 | 36104 ft | 482 kts | 326° |
| 2026-05-08 11:11 | 32.90528 | 45.06631 | 36106 ft | 480 kts | 327° |
| 2026-05-08 11:12 | 32.96532 | 45.03213 | 36090 ft | 478 kts | 327° |
| 2026-05-08 11:12 | 33.02488 | 44.99806 | 36094 ft | 477 kts | 327° |
| 2026-05-08 11:13 | 33.08442 | 44.96390 | 36103 ft | 475 kts | 327° |
| 2026-05-08 11:13 | 33.14386 | 44.92984 | 36094 ft | 473 kts | 327° |
| 2026-05-08 11:14 | 33.20340 | 44.89564 | 36092 ft | 472 kts | 327° |
| 2026-05-08 11:14 | 33.26231 | 44.86179 | 36088 ft | 472 kts | 327° |
| 2026-05-08 11:15 | 33.32178 | 44.82755 | 36079 ft | 471 kts | 327° |
| 2026-05-08 11:15 | 33.38029 | 44.79373 | 36078 ft | 471 kts | 327° |
| 2026-05-08 11:16 | 33.43945 | 44.75966 | 36070 ft | 471 kts | 327° |
| 2026-05-08 11:16 | 33.49849 | 44.72549 | 36070 ft | 471 kts | 327° |
| 2026-05-08 11:17 | 33.55734 | 44.69128 | 36066 ft | 471 kts | 327° |
| 2026-05-08 11:17 | 33.61636 | 44.65700 | 36078 ft | 470 kts | 327° |
| 2026-05-08 11:18 | 33.67516 | 44.62292 | 36071 ft | 469 kts | 327° |
| 2026-05-08 11:18 | 33.73387 | 44.58878 | 36082 ft | 468 kts | 327° |
| 2026-05-08 11:19 | 33.79142 | 44.55524 | 36074 ft | 467 kts | 327° |
| 2026-05-08 11:19 | 33.84971 | 44.52120 | 36086 ft | 466 kts | 327° |
| 2026-05-08 11:20 | 33.90816 | 44.48703 | 36081 ft | 466 kts | 327° |
| 2026-05-08 11:20 | 33.96638 | 44.45331 | 36079 ft | 463 kts | 327° |
| 2026-05-08 11:21 | 34.02789 | 44.42765 | 36068 ft | 473 kts | 337° |
| 2026-05-08 11:21 | 34.09118 | 44.40554 | 36105 ft | 471 kts | 337° |
| 2026-05-08 11:22 | 34.15384 | 44.38358 | 36099 ft | 470 kts | 337° |
| 2026-05-08 11:22 | 34.21674 | 44.36155 | 36094 ft | 469 kts | 337° |
| 2026-05-08 11:23 | 34.27943 | 44.33960 | 36100 ft | 469 kts | 337° |
| 2026-05-08 11:23 | 34.34210 | 44.31755 | 36122 ft | 468 kts | 337° |
| 2026-05-08 11:24 | 34.40442 | 44.29558 | 36109 ft | 468 kts | 337° |
| 2026-05-08 11:24 | 34.46653 | 44.27368 | 36123 ft | 467 kts | 337° |
| 2026-05-08 11:25 | 34.52904 | 44.25153 | 36131 ft | 467 kts | 337° |
| 2026-05-08 11:25 | 34.59144 | 44.22942 | 36135 ft | 466 kts | 337° |
| 2026-05-08 11:26 | 34.65361 | 44.20745 | 36145 ft | 466 kts | 337° |
| 2026-05-08 11:26 | 34.71588 | 44.18537 | 36153 ft | 465 kts | 337° |
| 2026-05-08 11:27 | 34.77670 | 44.16366 | 36166 ft | 466 kts | 336° |
| 2026-05-08 11:27 | 34.83901 | 44.14140 | 36083 ft | 467 kts | 337° |
| 2026-05-08 11:28 | 34.90124 | 44.11929 | 36038 ft | 466 kts | 337° |
| 2026-05-08 11:28 | 34.96344 | 44.09711 | 36047 ft | 466 kts | 337° |
| 2026-05-08 11:29 | 35.02556 | 44.07496 | 36033 ft | 466 kts | 337° |
| 2026-05-08 11:29 | 35.08786 | 44.05275 | 36036 ft | 466 kts | 337° |
| 2026-05-08 11:30 | 35.15009 | 44.03033 | 36041 ft | 466 kts | 337° |
| 2026-05-08 11:30 | 35.21214 | 44.00790 | 36074 ft | 466 kts | 337° |
| 2026-05-08 11:31 | 35.27447 | 43.98550 | 36066 ft | 465 kts | 337° |
| 2026-05-08 11:31 | 35.33624 | 43.96333 | 36062 ft | 465 kts | 337° |
| 2026-05-08 11:32 | 35.39810 | 43.94099 | 36079 ft | 464 kts | 337° |
| 2026-05-08 11:32 | 35.46009 | 43.91853 | 36059 ft | 463 kts | 337° |
| 2026-05-08 11:33 | 35.52199 | 43.89607 | 36067 ft | 463 kts | 337° |
| 2026-05-08 11:33 | 35.58354 | 43.87370 | 36068 ft | 463 kts | 337° |
| 2026-05-08 11:34 | 35.64544 | 43.85121 | 36059 ft | 462 kts | 337° |
| 2026-05-08 11:34 | 35.70702 | 43.82880 | 36075 ft | 462 kts | 337° |
| 2026-05-08 11:35 | 35.76849 | 43.80639 | 36075 ft | 461 kts | 337° |
| 2026-05-08 11:35 | 35.82976 | 43.78394 | 36085 ft | 461 kts | 337° |
| 2026-05-08 11:36 | 35.89156 | 43.76131 | 36075 ft | 460 kts | 337° |
| 2026-05-08 11:36 | 35.95293 | 43.73880 | 36087 ft | 460 kts | 337° |
| 2026-05-08 11:37 | 36.01393 | 43.71630 | 36080 ft | 460 kts | 337° |
| 2026-05-08 11:37 | 36.07484 | 43.69394 | 36048 ft | 446 kts | 337° |
| 2026-05-08 11:38 | 36.13427 | 43.67220 | 36057 ft | 449 kts | 337° |
| 2026-05-08 11:38 | 36.19471 | 43.64973 | 36059 ft | 456 kts | 337° |
| 2026-05-08 11:39 | 36.25589 | 43.62853 | 36046 ft | 457 kts | 348° |
| 2026-05-08 11:39 | 36.28799 | 43.63005 | 36093 ft | 472 kts | 9° |
| 2026-05-08 11:39 | 36.31888 | 43.64535 | 36056 ft | 488 kts | 29° |
| 2026-05-08 11:39 | 36.34558 | 43.67155 | 36061 ft | 496 kts | 45° |
| 2026-05-08 11:40 | 36.36665 | 43.70560 | 36065 ft | 500 kts | 60° |
| 2026-05-08 11:40 | 36.37995 | 43.74533 | 36064 ft | 500 kts | 78° |
| 2026-05-08 11:40 | 36.38338 | 43.78807 | 36076 ft | 495 kts | 98° |
| 2026-05-08 11:40 | 36.37670 | 43.82875 | 36057 ft | 486 kts | 114° |
| 2026-05-08 11:41 | 36.36598 | 43.86869 | 36074 ft | 490 kts | 105° |
| 2026-05-08 11:41 | 36.36378 | 43.91112 | 36079 ft | 498 kts | 85° |
| 2026-05-08 11:41 | 36.37304 | 43.95294 | 36077 ft | 501 kts | 63° |
| 2026-05-08 11:41 | 36.39268 | 43.98861 | 36068 ft | 497 kts | 42° |
| 2026-05-08 11:42 | 36.41930 | 44.01437 | 36053 ft | 490 kts | 27° |
| 2026-05-08 11:42 | 36.48141 | 44.04661 | 36039 ft | 480 kts | 6° |
| 2026-05-08 11:42 | 36.51412 | 44.05091 | 36051 ft | 469 kts | 351° |
| 2026-05-08 11:43 | 36.54575 | 44.04463 | 36039 ft | 455 kts | 335° |
| 2026-05-08 11:43 | 36.57367 | 44.02908 | 36031 ft | 442 kts | 321° |
| 2026-05-08 11:43 | 36.59793 | 44.00618 | 36032 ft | 434 kts | 313° |
| 2026-05-08 11:44 | 36.64422 | 43.95750 | 36049 ft | 438 kts | 314° |
| 2026-05-08 11:44 | 36.69139 | 43.90890 | 36049 ft | 439 kts | 314° |
| 2026-05-08 11:45 | 36.73833 | 43.86035 | 36051 ft | 440 kts | 314° |
| 2026-05-08 11:45 | 36.78544 | 43.81129 | 36054 ft | 440 kts | 314° |
| 2026-05-08 11:46 | 36.83233 | 43.76235 | 36056 ft | 440 kts | 314° |
| 2026-05-08 11:46 | 36.87932 | 43.71323 | 36062 ft | 441 kts | 314° |
| 2026-05-08 11:47 | 36.92007 | 43.67052 | 36088 ft | 440 kts | 314° |
| 2026-05-08 11:47 | 36.96448 | 43.62388 | 36095 ft | 440 kts | 314° |
| 2026-05-08 11:48 | 37.01112 | 43.57496 | 36102 ft | 439 kts | 314° |
| 2026-05-08 11:48 | 37.05791 | 43.52585 | 36118 ft | 439 kts | 314° |
| 2026-05-08 11:49 | 37.09701 | 43.48466 | 36120 ft | 439 kts | 314° |
| 2026-05-08 11:49 | 37.14379 | 43.43536 | 36116 ft | 439 kts | 314° |
| 2026-05-08 11:50 | 37.18958 | 43.38700 | 36130 ft | 439 kts | 314° |
| 2026-05-08 11:50 | 37.23590 | 43.33796 | 36133 ft | 439 kts | 314° |
| 2026-05-08 11:51 | 37.28281 | 43.28822 | 36129 ft | 438 kts | 314° |
| 2026-05-08 11:51 | 37.32864 | 43.23918 | 36143 ft | 436 kts | 311° |
| 2026-05-08 11:52 | 37.36551 | 43.18035 | 36133 ft | 424 kts | 295° |
| 2026-05-08 11:52 | 37.39337 | 43.11486 | 36134 ft | 424 kts | 294° |
| 2026-05-08 11:53 | 37.42135 | 43.04970 | 36148 ft | 423 kts | 295° |
| 2026-05-08 11:53 | 37.44917 | 42.98454 | 36142 ft | 423 kts | 294° |
| 2026-05-08 11:54 | 37.47690 | 42.91926 | 36142 ft | 423 kts | 295° |
| 2026-05-08 11:54 | 37.50459 | 42.85391 | 36155 ft | 423 kts | 295° |
| 2026-05-08 11:55 | 37.53202 | 42.78894 | 36150 ft | 423 kts | 295° |
| 2026-05-08 11:55 | 37.55968 | 42.72345 | 36141 ft | 423 kts | 295° |
| 2026-05-08 11:56 | 37.58734 | 42.65760 | 36136 ft | 423 kts | 295° |
| 2026-05-08 11:56 | 37.61477 | 42.59243 | 36143 ft | 423 kts | 295° |
| 2026-05-08 11:57 | 37.64243 | 42.52680 | 36123 ft | 423 kts | 295° |
| 2026-05-08 11:57 | 37.66998 | 42.46151 | 36129 ft | 423 kts | 295° |
| 2026-05-08 11:58 | 37.69749 | 42.39583 | 36151 ft | 423 kts | 295° |
| 2026-05-08 11:58 | 37.72483 | 42.33025 | 36132 ft | 423 kts | 295° |
| 2026-05-08 11:59 | 37.76593 | 42.23162 | 36135 ft | 423 kts | 295° |
| 2026-05-08 11:59 | 37.79331 | 42.16575 | 36146 ft | 423 kts | 295° |
| 2026-05-08 12:00 | 37.82021 | 42.10099 | 36138 ft | 422 kts | 295° |
| 2026-05-08 12:00 | 37.84746 | 42.03522 | 36137 ft | 422 kts | 295° |
| 2026-05-08 12:01 | 37.87434 | 41.97022 | 36139 ft | 422 kts | 295° |
| 2026-05-08 12:01 | 37.90137 | 41.90475 | 36128 ft | 422 kts | 296° |
| 2026-05-08 12:02 | 37.93658 | 41.84504 | 36137 ft | 426 kts | 309° |
| 2026-05-08 12:02 | 37.97553 | 41.78943 | 36128 ft | 427 kts | 308° |
| 2026-05-08 12:03 | 38.01421 | 41.73377 | 36134 ft | 427 kts | 308° |
| 2026-05-08 12:03 | 38.05180 | 41.67950 | 36141 ft | 427 kts | 308° |
| 2026-05-08 12:04 | 38.09094 | 41.62292 | 36141 ft | 427 kts | 308° |
| 2026-05-08 12:04 | 38.13020 | 41.56638 | 36153 ft | 427 kts | 309° |
| 2026-05-08 12:05 | 38.16932 | 41.50985 | 36145 ft | 427 kts | 309° |
| 2026-05-08 12:05 | 38.20827 | 41.45325 | 36141 ft | 426 kts | 309° |
| 2026-05-08 12:06 | 38.24729 | 41.39647 | 36147 ft | 426 kts | 309° |
| 2026-05-08 12:06 | 38.28617 | 41.33996 | 36149 ft | 426 kts | 309° |
| 2026-05-08 12:07 | 38.32518 | 41.28321 | 36147 ft | 426 kts | 309° |
| 2026-05-08 12:07 | 38.36353 | 41.22717 | 36146 ft | 426 kts | 309° |
| 2026-05-08 12:08 | 38.40221 | 41.17051 | 36143 ft | 426 kts | 309° |
| 2026-05-08 12:08 | 38.44122 | 41.11334 | 36151 ft | 426 kts | 309° |
| 2026-05-08 12:09 | 38.48628 | 41.06457 | 36148 ft | 421 kts | 327° |
| 2026-05-08 12:09 | 38.53673 | 41.02941 | 36151 ft | 409 kts | 328° |
| 2026-05-08 12:10 | 38.58659 | 40.99464 | 36154 ft | 408 kts | 328° |
| 2026-05-08 12:10 | 38.63647 | 40.95973 | 36157 ft | 408 kts | 328° |
| 2026-05-08 12:11 | 38.68622 | 40.92487 | 36164 ft | 407 kts | 329° |
| 2026-05-08 12:11 | 38.73595 | 40.89008 | 36164 ft | 407 kts | 329° |
| 2026-05-08 12:12 | 38.78532 | 40.85543 | 36172 ft | 407 kts | 329° |
| 2026-05-08 12:12 | 38.83556 | 40.82004 | 36174 ft | 418 kts | 329° |
| 2026-05-08 12:13 | 38.88709 | 40.78374 | 36178 ft | 428 kts | 329° |
| 2026-05-08 12:13 | 38.93944 | 40.74670 | 36184 ft | 430 kts | 329° |
| 2026-05-08 12:14 | 38.99188 | 40.70956 | 36181 ft | 430 kts | 329° |
| 2026-05-08 12:14 | 39.04445 | 40.67247 | 36182 ft | 430 kts | 329° |
| 2026-05-08 12:15 | 39.09687 | 40.63541 | 36186 ft | 430 kts | 329° |
| 2026-05-08 12:15 | 39.14927 | 40.59819 | 36192 ft | 430 kts | 329° |
| 2026-05-08 12:16 | 39.20162 | 40.56092 | 36188 ft | 431 kts | 329° |
| 2026-05-08 12:16 | 39.25402 | 40.52352 | 36191 ft | 431 kts | 329° |
| 2026-05-08 12:17 | 39.30641 | 40.48604 | 36191 ft | 431 kts | 329° |
| 2026-05-08 12:17 | 39.35891 | 40.44853 | 36192 ft | 431 kts | 329° |
| 2026-05-08 12:18 | 39.40966 | 40.41224 | 36197 ft | 431 kts | 329° |
| 2026-05-08 12:18 | 39.46212 | 40.37452 | 36192 ft | 431 kts | 329° |
| 2026-05-08 12:19 | 39.51453 | 40.33678 | 36192 ft | 431 kts | 329° |
| 2026-05-08 12:19 | 39.56704 | 40.29898 | 36193 ft | 431 kts | 329° |
| 2026-05-08 12:20 | 39.61907 | 40.26141 | 36190 ft | 431 kts | 329° |
| 2026-05-08 12:20 | 39.67144 | 40.22356 | 36184 ft | 431 kts | 329° |
| 2026-05-08 12:21 | 39.69781 | 40.20449 | 36005 ft | 426 kts | 329° |
| 2026-05-08 12:21 | 39.72316 | 40.18611 | 35784 ft | 417 kts | 330° |
| 2026-05-08 12:21 | 39.74840 | 40.16777 | 35183 ft | 416 kts | 330° |
| 2026-05-08 12:21 | 39.77374 | 40.14937 | 34842 ft | 409 kts | 330° |
| 2026-05-08 12:22 | 39.79843 | 40.13147 | 34401 ft | 404 kts | 330° |
| 2026-05-08 12:22 | 39.82258 | 40.11397 | 33942 ft | 400 kts | 330° |
| 2026-05-08 12:22 | 39.84715 | 40.09619 | 33413 ft | 396 kts | 330° |
| 2026-05-08 12:22 | 39.87058 | 40.07918 | 32921 ft | 392 kts | 331° |
| 2026-05-08 12:23 | 39.89434 | 40.06186 | 32415 ft | 389 kts | 331° |
| 2026-05-08 12:23 | 39.91787 | 40.04461 | 31938 ft | 385 kts | 331° |
| 2026-05-08 12:23 | 39.94110 | 40.02756 | 31456 ft | 382 kts | 332° |
| 2026-05-08 12:23 | 39.96444 | 40.01047 | 30959 ft | 379 kts | 332° |
| 2026-05-08 12:24 | 39.98739 | 39.99371 | 30508 ft | 376 kts | 332° |
| 2026-05-08 12:24 | 40.00994 | 39.97724 | 30049 ft | 374 kts | 332° |
| 2026-05-08 12:24 | 40.03250 | 39.96072 | 29521 ft | 371 kts | 332° |
| 2026-05-08 12:24 | 40.05491 | 39.94432 | 29085 ft | 366 kts | 332° |
| 2026-05-08 12:25 | 40.07694 | 39.92818 | 28718 ft | 361 kts | 332° |
| 2026-05-08 12:25 | 40.09803 | 39.91270 | 28289 ft | 357 kts | 332° |
| 2026-05-08 12:25 | 40.11960 | 39.89680 | 27844 ft | 355 kts | 332° |
| 2026-05-08 12:25 | 40.14099 | 39.88103 | 27394 ft | 352 kts | 332° |
| 2026-05-08 12:26 | 40.16238 | 39.86530 | 26923 ft | 350 kts | 332° |
| 2026-05-08 12:26 | 40.18345 | 39.84983 | 26473 ft | 348 kts | 332° |
| 2026-05-08 12:26 | 40.20445 | 39.83440 | 26034 ft | 346 kts | 332° |
| 2026-05-08 12:26 | 40.22541 | 39.81896 | 25594 ft | 343 kts | 332° |
| 2026-05-08 12:27 | 40.24609 | 39.80372 | 25164 ft | 341 kts | 332° |
| 2026-05-08 12:27 | 40.26678 | 39.78846 | 24726 ft | 339 kts | 332° |
| 2026-05-08 12:27 | 40.28727 | 39.77338 | 24298 ft | 337 kts | 332° |
| 2026-05-08 12:27 | 40.30764 | 39.75836 | 23884 ft | 336 kts | 332° |
| 2026-05-08 12:28 | 40.32778 | 39.74347 | 23400 ft | 334 kts | 332° |
| 2026-05-08 12:28 | 40.34792 | 39.72851 | 22952 ft | 332 kts | 332° |
| 2026-05-08 12:28 | 40.36802 | 39.71355 | 22503 ft | 330 kts | 332° |
| 2026-05-08 12:28 | 40.38803 | 39.69870 | 22070 ft | 329 kts | 332° |
| 2026-05-08 12:29 | 40.40871 | 39.68683 | 21646 ft | 325 kts | 344° |
| 2026-05-08 12:29 | 40.43089 | 39.68144 | 21126 ft | 326 kts | 357° |
| 2026-05-08 12:29 | 40.45346 | 39.68281 | 20459 ft | 323 kts | 7° |
| 2026-05-08 12:29 | 40.47563 | 39.68704 | 19699 ft | 322 kts | 8° |
| 2026-05-08 12:30 | 40.49734 | 39.69247 | 18986 ft | 320 kts | 16° |
| 2026-05-08 12:30 | 40.51770 | 39.70377 | 18325 ft | 318 kts | 28° |
| 2026-05-08 12:30 | 40.53667 | 39.71776 | 17587 ft | 315 kts | 27° |
| 2026-05-08 12:30 | 40.55588 | 39.73182 | 16817 ft | 315 kts | 27° |
| 2026-05-08 12:31 | 40.57492 | 39.74568 | 16316 ft | 309 kts | 27° |
| 2026-05-08 12:31 | 40.59342 | 39.75913 | 16165 ft | 309 kts | 27° |
| 2026-05-08 12:31 | 40.61203 | 39.77263 | 15771 ft | 311 kts | 26° |
| 2026-05-08 12:31 | 40.63078 | 39.78625 | 15367 ft | 311 kts | 26° |
| 2026-05-08 12:32 | 40.64968 | 39.80003 | 14815 ft | 309 kts | 26° |
| 2026-05-08 12:32 | 40.66838 | 39.81389 | 14329 ft | 307 kts | 26° |
| 2026-05-08 12:32 | 40.68612 | 39.82847 | 14168 ft | 298 kts | 38° |
| 2026-05-08 12:32 | 40.69951 | 39.84908 | 13713 ft | 305 kts | 60° |
| 2026-05-08 12:33 | 40.70571 | 39.87577 | 13257 ft | 310 kts | 86° |
| 2026-05-08 12:33 | 40.70312 | 39.90382 | 13204 ft | 311 kts | 109° |
| 2026-05-08 12:33 | 40.69257 | 39.92842 | 13194 ft | 313 kts | 133° |
| 2026-05-08 12:33 | 40.67531 | 39.94565 | 13195 ft | 310 kts | 158° |
| 2026-05-08 12:34 | 40.65469 | 39.95221 | 13194 ft | 306 kts | 182° |
| 2026-05-08 12:34 | 40.64068 | 39.95040 | 13197 ft | 303 kts | 196° |
| 2026-05-08 12:34 | 40.62123 | 39.94002 | 13193 ft | 302 kts | 210° |
| 2026-05-08 12:34 | 40.60268 | 39.92724 | 13186 ft | 302 kts | 212° |
| 2026-05-08 12:35 | 40.58434 | 39.91376 | 13188 ft | 302 kts | 211° |
| 2026-05-08 12:35 | 40.56606 | 39.90011 | 13190 ft | 302 kts | 213° |
| 2026-05-08 12:35 | 40.54801 | 39.88601 | 13179 ft | 300 kts | 219° |
| 2026-05-08 12:35 | 40.53408 | 39.86642 | 13182 ft | 296 kts | 242° |
| 2026-05-08 12:36 | 40.52669 | 39.84160 | 13184 ft | 289 kts | 262° |
| 2026-05-08 12:36 | 40.52671 | 39.81532 | 13185 ft | 287 kts | 283° |
| 2026-05-08 12:36 | 40.53405 | 39.79087 | 13189 ft | 289 kts | 303° |
| 2026-05-08 12:36 | 40.54782 | 39.77159 | 13198 ft | 292 kts | 324° |
| 2026-05-08 12:37 | 40.56622 | 39.76050 | 13191 ft | 294 kts | 345° |
| 2026-05-08 12:37 | 40.58663 | 39.75934 | 13192 ft | 297 kts | 7° |
| 2026-05-08 12:37 | 40.60624 | 39.76815 | 13203 ft | 300 kts | 24° |
| 2026-05-08 12:37 | 40.62489 | 39.78067 | 13193 ft | 302 kts | 25° |
| 2026-05-08 12:38 | 40.64291 | 39.79382 | 13191 ft | 302 kts | 26° |
| 2026-05-08 12:38 | 40.66130 | 39.80760 | 13193 ft | 302 kts | 28° |
| 2026-05-08 12:38 | 40.67943 | 39.82126 | 13194 ft | 302 kts | 30° |
| 2026-05-08 12:38 | 40.69502 | 39.83961 | 13201 ft | 307 kts | 52° |
| 2026-05-08 12:39 | 40.70403 | 39.86542 | 13196 ft | 312 kts | 77° |
| 2026-05-08 12:39 | 40.70440 | 39.89399 | 13197 ft | 314 kts | 102° |
| 2026-05-08 12:39 | 40.69621 | 39.92004 | 13166 ft | 313 kts | 125° |
| 2026-05-08 12:39 | 40.68078 | 39.93972 | 12782 ft | 309 kts | 151° |
| 2026-05-08 12:40 | 40.66070 | 39.94914 | 12403 ft | 302 kts | 176° |
| 2026-05-08 12:40 | 40.64005 | 39.94732 | 12190 ft | 297 kts | 198° |
| 2026-05-08 12:40 | 40.62110 | 39.93675 | 12194 ft | 297 kts | 210° |
| 2026-05-08 12:40 | 40.60274 | 39.92411 | 12180 ft | 297 kts | 211° |
| 2026-05-08 12:41 | 40.58676 | 39.90764 | 12189 ft | 292 kts | 236° |
| 2026-05-08 12:41 | 40.57895 | 39.88381 | 12181 ft | 288 kts | 262° |
| 2026-05-08 12:41 | 40.57850 | 39.85724 | 12189 ft | 285 kts | 280° |
| 2026-05-08 12:41 | 40.58452 | 39.83253 | 12014 ft | 289 kts | 298° |
| 2026-05-08 12:42 | 40.59674 | 39.81228 | 11693 ft | 287 kts | 320° |
| 2026-05-08 12:42 | 40.61401 | 39.79936 | 11455 ft | 287 kts | 341° |
| 2026-05-08 12:42 | 40.63383 | 39.79596 | 11204 ft | 290 kts | 2° |
| 2026-05-08 12:42 | 40.65314 | 39.80264 | 10953 ft | 294 kts | 23° |
| 2026-05-08 12:43 | 40.67127 | 39.81493 | 10704 ft | 296 kts | 32° |
| 2026-05-08 12:43 | 40.68595 | 39.83378 | 10480 ft | 300 kts | 50° |
| 2026-05-08 12:43 | 40.69856 | 39.85526 | 10235 ft | 299 kts | 51° |
| 2026-05-08 12:43 | 40.71130 | 39.87701 | 9981 ft | 299 kts | 50° |
| 2026-05-08 12:44 | 40.72403 | 39.89870 | 9822 ft | 299 kts | 50° |
| 2026-05-08 12:44 | 40.73682 | 39.92048 | 9655 ft | 300 kts | 50° |
| 2026-05-08 12:44 | 40.74968 | 39.94247 | 9204 ft | 297 kts | 51° |
| 2026-05-08 12:44 | 40.76208 | 39.96371 | 8874 ft | 293 kts | 51° |
| 2026-05-08 12:45 | 40.77420 | 39.98452 | 8741 ft | 283 kts | 51° |
| 2026-05-08 12:45 | 40.78599 | 40.00479 | 8595 ft | 273 kts | 50° |
| 2026-05-08 12:45 | 40.79739 | 40.02439 | 8367 ft | 268 kts | 50° |
| 2026-05-08 12:45 | 40.80866 | 40.04374 | 8084 ft | 266 kts | 50° |
| 2026-05-08 12:46 | 40.82004 | 40.06265 | 7694 ft | 263 kts | 44° |
| 2026-05-08 12:46 | 40.83404 | 40.07779 | 7329 ft | 257 kts | 28° |
| 2026-05-08 12:46 | 40.84858 | 40.08671 | 6763 ft | 255 kts | 14° |
| 2026-05-08 12:46 | 40.86613 | 40.09223 | 6069 ft | 252 kts | 9° |
| 2026-05-08 12:47 | 40.88314 | 40.09711 | 5390 ft | 251 kts | 9° |
| 2026-05-08 12:47 | 40.90022 | 40.09747 | 4719 ft | 245 kts | 340° |
| 2026-05-08 12:47 | 40.91345 | 40.08483 | 4282 ft | 232 kts | 303° |
| 2026-05-08 12:47 | 40.91893 | 40.06564 | 4078 ft | 217 kts | 283° |
| 2026-05-08 12:48 | 40.92214 | 40.04669 | 3957 ft | 206 kts | 282° |
| 2026-05-08 12:48 | 40.92507 | 40.02900 | 3881 ft | 192 kts | 282° |
| 2026-05-08 12:48 | 40.92790 | 40.01203 | 3784 ft | 188 kts | 283° |
| 2026-05-08 12:48 | 40.93162 | 39.99540 | 3586 ft | 188 kts | 289° |
| 2026-05-08 12:49 | 40.93621 | 39.97927 | 3294 ft | 186 kts | 291° |
| 2026-05-08 12:49 | 40.94106 | 39.96335 | 3003 ft | 185 kts | 292° |
| 2026-05-08 12:49 | 40.94583 | 39.94796 | 2714 ft | 178 kts | 292° |
| 2026-05-08 12:49 | 40.95045 | 39.93314 | 2434 ft | 168 kts | 292° |
| 2026-05-08 12:50 | 40.95475 | 39.91935 | 2197 ft | 156 kts | 292° |
| 2026-05-08 12:50 | 40.95880 | 39.90637 | 1946 ft | 150 kts | 292° |
| 2026-05-08 12:50 | 40.96273 | 39.89376 | 1724 ft | 147 kts | 293° |
| 2026-05-08 12:50 | 40.96656 | 39.88145 | 1490 ft | 145 kts | 293° |
| 2026-05-08 12:51 | 40.97045 | 39.86896 | 1259 ft | 146 kts | 293° |
| 2026-05-08 12:51 | 40.97795 | 39.84486 | 796 ft | 146 kts | 293° |
| 2026-05-08 12:51 | 40.98063 | 39.83563 | 569 ft | 146 kts | 290° |
| 2026-05-08 12:52 | 40.98525 | 39.82370 | 502 ft | 145 kts | 294° |
| 2026-05-08 12:52 | 40.99178 | 39.80063 | 90 ft | 138 kts | 294° |
| 2026-05-08 12:52 | 40.99437 | 39.79209 | 89 ft | 57 kts | 291° |
| 2026-05-08 12:53 | 40.99511 | 39.78961 | 85 ft | 21 kts | 291° |
| 2026-05-08 12:53 | 40.99553 | 39.78788 | 87 ft | 19 kts | 284° |
| 2026-05-08 12:53 | 40.99563 | 39.78648 | 90 ft | 10 kts | 272° |
| 2026-05-08 12:53 | 40.99560 | 39.78566 | 91 ft | 8 kts | 264° |
| 2026-05-08 12:54 | 40.99546 | 39.78440 | 90 ft | 24 kts | 262° |
| 2026-05-08 12:54 | 40.99559 | 39.78326 | 91 ft | 6 kts | 275° |
| 2026-05-08 12:54 | 40.99557 | 39.78312 | 88 ft | 3 kts | 267° |
| 2026-05-08 12:54 | 40.99556 | 39.78310 | 88 ft | 0 kts | 263° |
| 2026-05-08 12:55 | 40.99554 | 39.78302 | 90 ft | 7 kts | 252° |
| 2026-05-08 12:56 | 40.99536 | 39.78288 | 90 ft | 3 kts | 190° |
| 2026-05-08 12:56 | 40.99515 | 39.78278 | 88 ft | 6 kts | 202° |
| 2026-05-08 12:56 | 40.99507 | 39.78274 | 88 ft | 0 kts | 201° |